sensor_id;sensor_type;location;lat;lon;timestamp;P1;durP1;ratioP1;P2;durP2;ratioP2
75356;SDS011;63946;51.986;5.930;2023-04-08T06:40:19;10.70;;;7.32;;
75356;SDS011;63946;51.986;5.930;2023-04-08T06:42:48;11.93;;;8.50;;
75356;SDS011;63946;51.986;5.930;2023-04-08T06:45:38;11.85;;;8.63;;
75356;SDS011;63946;51.986;5.930;2023-04-08T06:48:07;11.48;;;8.95;;
75356;SDS011;63946;51.986;5.930;2023-04-08T06:50:36;10.43;;;8.30;;
75356;SDS011;63946;51.986;5.930;2023-04-08T06:53:05;10.45;;;8.25;;
75356;SDS011;63946;51.986;5.930;2023-04-08T06:55:34;10.55;;;8.27;;
75356;SDS011;63946;51.986;5.930;2023-04-08T06:58:02;7.57;;;6.18;;
75356;SDS011;63946;51.986;5.930;2023-04-08T07:00:31;10.07;;;7.07;;
75356;SDS011;63946;51.986;5.930;2023-04-08T07:03:00;8.38;;;6.57;;
75356;SDS011;63946;51.986;5.930;2023-04-08T07:05:29;10.25;;;7.45;;
75356;SDS011;63946;51.986;5.930;2023-04-08T07:07:57;8.55;;;7.32;;
75356;SDS011;63946;51.986;5.930;2023-04-08T07:10:26;8.38;;;7.05;;
75356;SDS011;63946;51.986;5.930;2023-04-08T07:12:55;10.80;;;7.70;;
75356;SDS011;63946;51.986;5.930;2023-04-08T07:15:24;9.68;;;6.80;;
75356;SDS011;63946;51.986;5.930;2023-04-08T07:17:52;8.60;;;6.57;;
75356;SDS011;63946;51.986;5.930;2023-04-08T07:20:22;7.97;;;6.68;;
75356;SDS011;63946;51.986;5.930;2023-04-08T07:22:50;10.48;;;6.70;;
75356;SDS011;63946;51.986;5.930;2023-04-08T07:25:19;8.38;;;6.30;;
75356;SDS011;63946;51.986;5.930;2023-04-08T07:27:48;12.23;;;7.70;;
75356;SDS011;63946;51.986;5.930;2023-04-08T07:30:17;8.50;;;7.03;;
75356;SDS011;63946;51.986;5.930;2023-04-08T07:32:46;9.52;;;8.02;;
75356;SDS011;63946;51.986;5.930;2023-04-08T07:35:18;11.48;;;7.55;;
75356;SDS011;63946;51.986;5.930;2023-04-08T07:37:49;9.95;;;6.68;;
75356;SDS011;63946;51.986;5.930;2023-04-08T07:40:19;8.60;;;6.65;;
75356;SDS011;63946;51.986;5.930;2023-04-08T07:42:48;9.52;;;6.00;;
75356;SDS011;63946;51.986;5.930;2023-04-08T07:45:18;9.85;;;6.80;;
75356;SDS011;63946;51.986;5.930;2023-04-08T07:47:47;9.13;;;7.50;;
75356;SDS011;63946;51.986;5.930;2023-04-08T07:50:16;7.60;;;6.03;;
75356;SDS011;63946;51.986;5.930;2023-04-08T07:52:48;8.35;;;6.93;;
75356;SDS011;63946;51.986;5.930;2023-04-08T07:55:17;8.50;;;6.63;;
75356;SDS011;63946;51.986;5.930;2023-04-08T07:57:46;8.98;;;6.30;;
75356;SDS011;63946;51.986;5.930;2023-04-08T08:00:18;7.95;;;6.30;;
75356;SDS011;63946;51.986;5.930;2023-04-08T08:02:47;6.82;;;6.00;;
75356;SDS011;63946;51.986;5.930;2023-04-08T08:05:16;6.88;;;5.47;;
75356;SDS011;63946;51.986;5.930;2023-04-08T08:07:45;9.45;;;6.30;;
75356;SDS011;63946;51.986;5.930;2023-04-08T08:10:15;7.57;;;6.18;;
75356;SDS011;63946;51.986;5.930;2023-04-08T08:12:46;9.50;;;6.82;;
75356;SDS011;63946;51.986;5.930;2023-04-08T08:15:15;7.88;;;6.20;;
75356;SDS011;63946;51.986;5.930;2023-04-08T08:17:44;9.93;;;7.00;;
75356;SDS011;63946;51.986;5.930;2023-04-08T08:20:12;7.00;;;5.75;;
75356;SDS011;63946;51.986;5.930;2023-04-08T08:22:41;10.95;;;7.00;;
75356;SDS011;63946;51.986;5.930;2023-04-08T08:25:10;9.10;;;7.57;;
75356;SDS011;63946;51.986;5.930;2023-04-08T08:27:39;8.43;;;7.30;;
75356;SDS011;63946;51.986;5.930;2023-04-08T08:30:08;6.93;;;5.45;;
75356;SDS011;63946;51.986;5.930;2023-04-08T08:32:37;8.02;;;6.25;;
75356;SDS011;63946;51.986;5.930;2023-04-08T08:35:05;8.43;;;6.88;;
75356;SDS011;63946;51.986;5.930;2023-04-08T08:37:34;6.82;;;5.47;;
75356;SDS011;63946;51.986;5.930;2023-04-08T08:40:03;9.20;;;6.30;;
75356;SDS011;63946;51.986;5.930;2023-04-08T08:42:32;7.35;;;5.47;;
75356;SDS011;63946;51.986;5.930;2023-04-08T08:45:01;7.72;;;5.82;;
75356;SDS011;63946;51.986;5.930;2023-04-08T08:47:31;8.48;;;6.63;;
75356;SDS011;63946;51.986;5.930;2023-04-08T08:50:00;8.80;;;6.43;;
75356;SDS011;63946;51.986;5.930;2023-04-08T08:52:30;7.43;;;6.72;;
75356;SDS011;63946;51.986;5.930;2023-04-08T08:55:00;10.63;;;7.65;;
75356;SDS011;63946;51.986;5.930;2023-04-08T08:57:29;6.38;;;5.78;;
75356;SDS011;63946;51.986;5.930;2023-04-08T08:59:58;6.75;;;5.72;;
75356;SDS011;63946;51.986;5.930;2023-04-08T09:02:29;8.00;;;6.72;;
75356;SDS011;63946;51.986;5.930;2023-04-08T09:05:02;9.85;;;7.50;;
75356;SDS011;63946;51.986;5.930;2023-04-08T09:07:36;7.07;;;6.20;;
75356;SDS011;63946;51.986;5.930;2023-04-08T09:10:07;8.85;;;6.25;;
75356;SDS011;63946;51.986;5.930;2023-04-08T09:12:39;7.18;;;6.47;;
75356;SDS011;63946;51.986;5.930;2023-04-08T09:15:22;10.32;;;7.28;;
75356;SDS011;63946;51.986;5.930;2023-04-08T09:17:51;6.85;;;5.63;;
75356;SDS011;63946;51.986;5.930;2023-04-08T09:20:19;7.57;;;5.75;;
75356;SDS011;63946;51.986;5.930;2023-04-08T09:22:55;7.05;;;6.03;;
75356;SDS011;63946;51.986;5.930;2023-04-08T09:25:28;9.15;;;7.40;;
75356;SDS011;63946;51.986;5.930;2023-04-08T09:27:58;8.80;;;7.28;;
75356;SDS011;63946;51.986;5.930;2023-04-08T09:30:28;9.38;;;7.60;;
75356;SDS011;63946;51.986;5.930;2023-04-08T09:32:58;10.88;;;8.18;;
75356;SDS011;63946;51.986;5.930;2023-04-08T09:35:31;10.77;;;7.95;;
75356;SDS011;63946;51.986;5.930;2023-04-08T09:38:01;9.63;;;8.20;;
75356;SDS011;63946;51.986;5.930;2023-04-08T09:40:33;10.57;;;8.65;;
75356;SDS011;63946;51.986;5.930;2023-04-08T09:43:03;10.48;;;7.50;;
75356;SDS011;63946;51.986;5.930;2023-04-08T09:45:33;10.25;;;6.72;;
75356;SDS011;63946;51.986;5.930;2023-04-08T09:48:09;9.65;;;7.65;;
75356;SDS011;63946;51.986;5.930;2023-04-08T09:50:46;10.27;;;8.43;;
75356;SDS011;63946;51.986;5.930;2023-04-08T09:53:24;13.00;;;9.88;;
75356;SDS011;63946;51.986;5.930;2023-04-08T09:55:57;12.40;;;10.70;;
75356;SDS011;63946;51.986;5.930;2023-04-08T09:58:28;11.13;;;9.43;;
75356;SDS011;63946;51.986;5.930;2023-04-08T10:01:00;9.50;;;8.05;;
75356;SDS011;63946;51.986;5.930;2023-04-08T10:03:36;15.13;;;10.10;;
75356;SDS011;63946;51.986;5.930;2023-04-08T10:06:08;11.57;;;7.75;;
75356;SDS011;63946;51.986;5.930;2023-04-08T10:08:40;10.70;;;8.68;;
75356;SDS011;63946;51.986;5.930;2023-04-08T10:11:09;11.50;;;9.45;;
75356;SDS011;63946;51.986;5.930;2023-04-08T10:13:38;10.20;;;8.63;;
75356;SDS011;63946;51.986;5.930;2023-04-08T10:16:20;11.07;;;8.90;;
75356;SDS011;63946;51.986;5.930;2023-04-08T10:18:50;10.43;;;8.38;;
75356;SDS011;63946;51.986;5.930;2023-04-08T10:21:32;11.77;;;8.73;;
75356;SDS011;63946;51.986;5.930;2023-04-08T10:24:12;10.82;;;8.93;;
75356;SDS011;63946;51.986;5.930;2023-04-08T10:26:43;9.35;;;8.00;;
75356;SDS011;63946;51.986;5.930;2023-04-08T10:31:49;9.00;;;7.43;;
75356;SDS011;63946;51.986;5.930;2023-04-08T10:34:22;10.80;;;8.70;;
75356;SDS011;63946;51.986;5.930;2023-04-08T10:36:52;10.05;;;8.40;;
75356;SDS011;63946;51.986;5.930;2023-04-08T10:39:23;10.80;;;8.90;;
75356;SDS011;63946;51.986;5.930;2023-04-08T10:41:53;11.32;;;8.75;;
75356;SDS011;63946;51.986;5.930;2023-04-08T10:44:22;9.68;;;8.18;;
75356;SDS011;63946;51.986;5.930;2023-04-08T10:46:53;10.25;;;7.85;;
75356;SDS011;63946;51.986;5.930;2023-04-08T10:49:22;11.65;;;7.38;;
75356;SDS011;63946;51.986;5.930;2023-04-08T10:52:05;10.07;;;7.70;;
75356;SDS011;63946;51.986;5.930;2023-04-08T10:54:35;9.07;;;7.50;;
75356;SDS011;63946;51.986;5.930;2023-04-08T10:57:04;10.05;;;7.63;;
75356;SDS011;63946;51.986;5.930;2023-04-08T10:59:34;9.85;;;7.72;;
75356;SDS011;63946;51.986;5.930;2023-04-08T11:02:04;9.60;;;8.00;;
75356;SDS011;63946;51.986;5.930;2023-04-08T11:04:33;8.25;;;7.22;;
75356;SDS011;63946;51.986;5.930;2023-04-08T11:07:09;8.85;;;6.85;;
75356;SDS011;63946;51.986;5.930;2023-04-08T11:09:38;8.18;;;7.38;;
75356;SDS011;63946;51.986;5.930;2023-04-08T11:12:09;8.65;;;7.65;;
75356;SDS011;63946;51.986;5.930;2023-04-08T11:14:40;9.38;;;7.28;;
75356;SDS011;63946;51.986;5.930;2023-04-08T11:17:10;7.00;;;6.30;;
75356;SDS011;63946;51.986;5.930;2023-04-08T11:19:41;7.68;;;6.28;;
75356;SDS011;63946;51.986;5.930;2023-04-08T11:22:11;9.45;;;8.25;;
75356;SDS011;63946;51.986;5.930;2023-04-08T11:24:40;8.45;;;7.53;;
75356;SDS011;63946;51.986;5.930;2023-04-08T11:27:09;8.93;;;6.63;;
75356;SDS011;63946;51.986;5.930;2023-04-08T11:29:43;8.23;;;7.18;;
75356;SDS011;63946;51.986;5.930;2023-04-08T11:32:12;6.78;;;6.10;;
75356;SDS011;63946;51.986;5.930;2023-04-08T11:34:40;8.30;;;6.95;;
75356;SDS011;63946;51.986;5.930;2023-04-08T11:37:12;8.82;;;6.20;;
75356;SDS011;63946;51.986;5.930;2023-04-08T11:39:42;11.13;;;7.43;;
75356;SDS011;63946;51.986;5.930;2023-04-08T11:42:30;7.97;;;6.68;;
75356;SDS011;63946;51.986;5.930;2023-04-08T11:45:00;9.73;;;6.47;;
75356;SDS011;63946;51.986;5.930;2023-04-08T11:47:49;6.82;;;6.13;;
75356;SDS011;63946;51.986;5.930;2023-04-08T11:50:22;8.77;;;7.05;;
75356;SDS011;63946;51.986;5.930;2023-04-08T11:55:25;9.43;;;6.63;;
75356;SDS011;63946;51.986;5.930;2023-04-08T11:58:03;10.60;;;6.53;;
75356;SDS011;63946;51.986;5.930;2023-04-08T12:00:32;11.32;;;7.07;;
75356;SDS011;63946;51.986;5.930;2023-04-08T12:03:01;7.97;;;6.65;;
75356;SDS011;63946;51.986;5.930;2023-04-08T12:05:30;9.88;;;7.43;;
75356;SDS011;63946;51.986;5.930;2023-04-08T12:07:59;8.25;;;7.00;;
75356;SDS011;63946;51.986;5.930;2023-04-08T12:10:28;9.93;;;7.22;;
75356;SDS011;63946;51.986;5.930;2023-04-08T12:12:57;9.38;;;7.03;;
75356;SDS011;63946;51.986;5.930;2023-04-08T12:15:25;8.18;;;7.00;;
75356;SDS011;63946;51.986;5.930;2023-04-08T12:17:54;7.97;;;6.30;;
75356;SDS011;63946;51.986;5.930;2023-04-08T12:20:23;8.85;;;6.75;;
75356;SDS011;63946;51.986;5.930;2023-04-08T12:22:52;8.82;;;7.85;;
75356;SDS011;63946;51.986;5.930;2023-04-08T12:25:21;9.00;;;7.13;;
75356;SDS011;63946;51.986;5.930;2023-04-08T12:27:49;10.00;;;7.75;;
75356;SDS011;63946;51.986;5.930;2023-04-08T12:30:18;11.35;;;7.60;;
75356;SDS011;63946;51.986;5.930;2023-04-08T12:32:47;10.05;;;7.60;;
75356;SDS011;63946;51.986;5.930;2023-04-08T12:35:19;7.70;;;6.65;;
75356;SDS011;63946;51.986;5.930;2023-04-08T12:37:48;7.97;;;6.32;;
75356;SDS011;63946;51.986;5.930;2023-04-08T12:40:17;7.55;;;6.47;;
75356;SDS011;63946;51.986;5.930;2023-04-08T12:42:48;6.63;;;5.72;;
75356;SDS011;63946;51.986;5.930;2023-04-08T12:45:20;8.68;;;6.55;;
75356;SDS011;63946;51.986;5.930;2023-04-08T12:47:49;9.13;;;6.80;;
75356;SDS011;63946;51.986;5.930;2023-04-08T12:50:20;9.02;;;7.22;;
75356;SDS011;63946;51.986;5.930;2023-04-08T12:52:49;10.35;;;7.32;;
75356;SDS011;63946;51.986;5.930;2023-04-08T12:55:18;8.77;;;6.72;;
75356;SDS011;63946;51.986;5.930;2023-04-08T12:57:50;8.40;;;7.00;;
75356;SDS011;63946;51.986;5.930;2023-04-08T13:00:19;7.50;;;6.70;;
75356;SDS011;63946;51.986;5.930;2023-04-08T13:02:48;9.75;;;8.23;;
75356;SDS011;63946;51.986;5.930;2023-04-08T13:05:17;9.43;;;7.18;;
75356;SDS011;63946;51.986;5.930;2023-04-08T13:07:48;10.00;;;8.20;;
75356;SDS011;63946;51.986;5.930;2023-04-08T13:10:17;10.00;;;7.50;;
75356;SDS011;63946;51.986;5.930;2023-04-08T13:12:48;8.57;;;7.43;;
75356;SDS011;63946;51.986;5.930;2023-04-08T13:15:17;8.02;;;7.05;;
75356;SDS011;63946;51.986;5.930;2023-04-08T13:17:48;8.88;;;7.65;;
75356;SDS011;63946;51.986;5.930;2023-04-08T13:20:20;9.32;;;7.47;;
75356;SDS011;63946;51.986;5.930;2023-04-08T13:22:51;8.60;;;7.40;;
75356;SDS011;63946;51.986;5.930;2023-04-08T13:25:27;9.88;;;7.90;;
75356;SDS011;63946;51.986;5.930;2023-04-08T13:27:56;8.82;;;7.10;;
75356;SDS011;63946;51.986;5.930;2023-04-08T13:30:25;10.52;;;7.55;;
75356;SDS011;63946;51.986;5.930;2023-04-08T13:32:54;9.45;;;6.80;;
75356;SDS011;63946;51.986;5.930;2023-04-08T13:35:26;11.27;;;7.28;;
75356;SDS011;63946;51.986;5.930;2023-04-08T13:37:55;8.57;;;7.07;;
75356;SDS011;63946;51.986;5.930;2023-04-08T13:40:23;8.98;;;6.28;;
75356;SDS011;63946;51.986;5.930;2023-04-08T13:42:54;8.52;;;7.05;;
75356;SDS011;63946;51.986;5.930;2023-04-08T13:45:23;7.65;;;6.60;;
75356;SDS011;63946;51.986;5.930;2023-04-08T13:47:52;8.70;;;6.53;;
75356;SDS011;63946;51.986;5.930;2023-04-08T13:50:21;7.82;;;5.70;;
75356;SDS011;63946;51.986;5.930;2023-04-08T13:52:50;9.18;;;7.60;;
75356;SDS011;63946;51.986;5.930;2023-04-08T13:55:18;11.15;;;8.52;;
75356;SDS011;63946;51.986;5.930;2023-04-08T13:57:50;11.30;;;9.40;;
75356;SDS011;63946;51.986;5.930;2023-04-08T14:00:19;12.88;;;10.70;;
75356;SDS011;63946;51.986;5.930;2023-04-08T14:02:52;11.23;;;9.13;;
75356;SDS011;63946;51.986;5.930;2023-04-08T14:05:21;10.52;;;8.30;;
75356;SDS011;63946;51.986;5.930;2023-04-08T14:07:50;9.88;;;7.85;;
75356;SDS011;63946;51.986;5.930;2023-04-08T14:10:19;10.27;;;8.27;;
75356;SDS011;63946;51.986;5.930;2023-04-08T14:12:47;10.63;;;8.23;;
75356;SDS011;63946;51.986;5.930;2023-04-08T14:15:16;13.15;;;10.15;;
75356;SDS011;63946;51.986;5.930;2023-04-08T14:17:45;13.55;;;9.90;;
75356;SDS011;63946;51.986;5.930;2023-04-08T14:22:45;12.27;;;9.15;;
75356;SDS011;63946;51.986;5.930;2023-04-08T14:25:14;14.35;;;9.68;;
75356;SDS011;63946;51.986;5.930;2023-04-08T14:27:43;10.82;;;9.30;;
75356;SDS011;63946;51.986;5.930;2023-04-08T14:30:14;12.13;;;9.45;;
75356;SDS011;63946;51.986;5.930;2023-04-08T14:32:43;12.65;;;9.68;;
75356;SDS011;63946;51.986;5.930;2023-04-08T14:35:12;13.35;;;10.85;;
75356;SDS011;63946;51.986;5.930;2023-04-08T14:37:41;14.63;;;10.73;;
75356;SDS011;63946;51.986;5.930;2023-04-08T14:40:10;12.85;;;10.88;;
75356;SDS011;63946;51.986;5.930;2023-04-08T14:42:39;13.07;;;10.25;;
75356;SDS011;63946;51.986;5.930;2023-04-08T14:45:09;10.27;;;8.27;;
75356;SDS011;63946;51.986;5.930;2023-04-08T14:47:38;12.45;;;9.15;;
75356;SDS011;63946;51.986;5.930;2023-04-08T14:50:07;16.27;;;11.15;;
75356;SDS011;63946;51.986;5.930;2023-04-08T14:52:36;15.00;;;11.80;;
75356;SDS011;63946;51.986;5.930;2023-04-08T14:55:05;16.60;;;12.38;;
75356;SDS011;63946;51.986;5.930;2023-04-08T14:57:37;18.52;;;12.68;;
75356;SDS011;63946;51.986;5.930;2023-04-08T15:00:06;15.93;;;12.40;;
75356;SDS011;63946;51.986;5.930;2023-04-08T15:02:37;16.27;;;12.63;;
75356;SDS011;63946;51.986;5.930;2023-04-08T15:05:06;22.20;;;14.48;;
75356;SDS011;63946;51.986;5.930;2023-04-08T15:07:35;16.42;;;13.27;;
75356;SDS011;63946;51.986;5.930;2023-04-08T15:10:04;15.15;;;12.27;;
75356;SDS011;63946;51.986;5.930;2023-04-08T15:12:33;12.95;;;11.05;;
75356;SDS011;63946;51.986;5.930;2023-04-08T15:15:02;16.25;;;13.32;;
75356;SDS011;63946;51.986;5.930;2023-04-08T15:17:31;19.60;;;12.68;;
75356;SDS011;63946;51.986;5.930;2023-04-08T15:20:00;16.67;;;13.63;;
75356;SDS011;63946;51.986;5.930;2023-04-08T15:22:30;15.90;;;13.15;;
75356;SDS011;63946;51.986;5.930;2023-04-08T15:24:59;19.27;;;13.93;;
75356;SDS011;63946;51.986;5.930;2023-04-08T15:27:29;17.13;;;14.10;;
75356;SDS011;63946;51.986;5.930;2023-04-08T15:30:01;18.77;;;14.80;;
75356;SDS011;63946;51.986;5.930;2023-04-08T15:32:30;15.60;;;12.38;;
75356;SDS011;63946;51.986;5.930;2023-04-08T15:35:00;17.92;;;13.75;;
75356;SDS011;63946;51.986;5.930;2023-04-08T15:37:29;18.60;;;14.95;;
75356;SDS011;63946;51.986;5.930;2023-04-08T15:39:58;17.80;;;13.85;;
75356;SDS011;63946;51.986;5.930;2023-04-08T15:42:26;17.83;;;11.68;;
75356;SDS011;63946;51.986;5.930;2023-04-08T15:44:55;18.50;;;15.35;;
75356;SDS011;63946;51.986;5.930;2023-04-08T15:47:24;17.75;;;14.23;;
75356;SDS011;63946;51.986;5.930;2023-04-08T15:49:53;18.42;;;13.70;;
75356;SDS011;63946;51.986;5.930;2023-04-08T15:52:24;18.70;;;14.73;;
75356;SDS011;63946;51.986;5.930;2023-04-08T15:54:53;17.33;;;13.73;;
75356;SDS011;63946;51.986;5.930;2023-04-08T15:57:22;16.25;;;11.80;;
75356;SDS011;63946;51.986;5.930;2023-04-08T15:59:51;16.65;;;13.57;;
75356;SDS011;63946;51.986;5.930;2023-04-08T16:02:20;18.70;;;12.48;;
75356;SDS011;63946;51.986;5.930;2023-04-08T16:04:49;21.42;;;14.98;;
75356;SDS011;63946;51.986;5.930;2023-04-08T16:07:24;21.92;;;15.35;;
75356;SDS011;63946;51.986;5.930;2023-04-08T16:09:55;19.75;;;16.00;;
75356;SDS011;63946;51.986;5.930;2023-04-08T16:12:23;17.50;;;13.15;;
75356;SDS011;63946;51.986;5.930;2023-04-08T16:14:55;16.65;;;12.70;;
75356;SDS011;63946;51.986;5.930;2023-04-08T16:17:24;18.90;;;13.88;;
75356;SDS011;63946;51.986;5.930;2023-04-08T16:19:54;20.73;;;15.23;;
75356;SDS011;63946;51.986;5.930;2023-04-08T16:22:23;17.65;;;14.30;;
75356;SDS011;63946;51.986;5.930;2023-04-08T16:24:52;17.67;;;13.05;;
75356;SDS011;63946;51.986;5.930;2023-04-08T16:27:21;16.88;;;12.95;;
75356;SDS011;63946;51.986;5.930;2023-04-08T16:29:53;14.63;;;11.65;;
75356;SDS011;63946;51.986;5.930;2023-04-08T16:32:22;15.05;;;11.48;;
75356;SDS011;63946;51.986;5.930;2023-04-08T16:34:50;16.48;;;11.43;;
75356;SDS011;63946;51.986;5.930;2023-04-08T16:37:19;20.30;;;13.70;;
75356;SDS011;63946;51.986;5.930;2023-04-08T16:39:48;17.13;;;12.77;;
75356;SDS011;63946;51.986;5.930;2023-04-08T16:42:18;13.07;;;10.80;;
75356;SDS011;63946;51.986;5.930;2023-04-08T16:44:56;13.48;;;11.02;;
75356;SDS011;63946;51.986;5.930;2023-04-08T16:47:25;15.85;;;12.18;;
75356;SDS011;63946;51.986;5.930;2023-04-08T16:49:54;21.38;;;13.88;;
75356;SDS011;63946;51.986;5.930;2023-04-08T16:52:26;13.52;;;10.73;;
75356;SDS011;63946;51.986;5.930;2023-04-08T16:54:55;18.65;;;13.88;;
75356;SDS011;63946;51.986;5.930;2023-04-08T16:57:24;15.45;;;11.05;;
75356;SDS011;63946;51.986;5.930;2023-04-08T16:59:53;18.58;;;13.85;;
75356;SDS011;63946;51.986;5.930;2023-04-08T17:02:21;15.02;;;12.18;;
75356;SDS011;63946;51.986;5.930;2023-04-08T17:04:51;14.05;;;11.38;;
75356;SDS011;63946;51.986;5.930;2023-04-08T17:07:19;17.02;;;12.18;;
75356;SDS011;63946;51.986;5.930;2023-04-08T17:09:49;16.25;;;11.68;;
75356;SDS011;63946;51.986;5.930;2023-04-08T17:12:19;15.13;;;11.77;;
75356;SDS011;63946;51.986;5.930;2023-04-08T17:14:48;16.70;;;12.55;;
75356;SDS011;63946;51.986;5.930;2023-04-08T17:17:17;13.27;;;10.68;;
75356;SDS011;63946;51.986;5.930;2023-04-08T17:19:45;15.30;;;12.55;;
75356;SDS011;63946;51.986;5.930;2023-04-08T17:22:14;14.65;;;11.20;;
75356;SDS011;63946;51.986;5.930;2023-04-08T17:24:43;16.55;;;11.50;;
75356;SDS011;63946;51.986;5.930;2023-04-08T17:27:12;17.77;;;12.48;;
75356;SDS011;63946;51.986;5.930;2023-04-08T17:29:42;19.27;;;14.65;;
75356;SDS011;63946;51.986;5.930;2023-04-08T17:32:11;17.33;;;13.77;;
75356;SDS011;63946;51.986;5.930;2023-04-08T17:34:40;16.08;;;12.77;;
75356;SDS011;63946;51.986;5.930;2023-04-08T17:37:11;17.92;;;12.30;;
75356;SDS011;63946;51.986;5.930;2023-04-08T17:39:40;16.30;;;12.48;;
75356;SDS011;63946;51.986;5.930;2023-04-08T17:42:12;16.77;;;13.98;;
75356;SDS011;63946;51.986;5.930;2023-04-08T17:44:41;16.60;;;12.73;;
75356;SDS011;63946;51.986;5.930;2023-04-08T17:47:10;15.57;;;12.25;;
75356;SDS011;63946;51.986;5.930;2023-04-08T17:49:39;16.55;;;13.55;;
75356;SDS011;63946;51.986;5.930;2023-04-08T17:52:07;18.42;;;13.43;;
75356;SDS011;63946;51.986;5.930;2023-04-08T17:54:36;17.10;;;13.48;;
75356;SDS011;63946;51.986;5.930;2023-04-08T17:57:06;16.73;;;13.95;;
75356;SDS011;63946;51.986;5.930;2023-04-08T17:59:34;18.13;;;14.52;;
75356;SDS011;63946;51.986;5.930;2023-04-08T18:02:03;18.55;;;14.23;;
75356;SDS011;63946;51.986;5.930;2023-04-08T18:04:32;18.77;;;13.80;;
75356;SDS011;63946;51.986;5.930;2023-04-08T18:07:01;17.98;;;14.38;;
75356;SDS011;63946;51.986;5.930;2023-04-08T18:09:30;14.63;;;11.38;;
75356;SDS011;63946;51.986;5.930;2023-04-08T18:11:59;16.35;;;13.70;;
75356;SDS011;63946;51.986;5.930;2023-04-08T18:14:30;18.98;;;14.30;;
75356;SDS011;63946;51.986;5.930;2023-04-08T18:17:00;18.23;;;14.48;;
75356;SDS011;63946;51.986;5.930;2023-04-08T18:19:29;19.23;;;13.18;;
75356;SDS011;63946;51.986;5.930;2023-04-08T18:21:58;20.42;;;14.40;;
75356;SDS011;63946;51.986;5.930;2023-04-08T18:24:30;16.65;;;11.95;;
75356;SDS011;63946;51.986;5.930;2023-04-08T18:26:59;20.63;;;14.10;;
75356;SDS011;63946;51.986;5.930;2023-04-08T18:29:30;19.73;;;14.77;;
75356;SDS011;63946;51.986;5.930;2023-04-08T18:31:59;22.27;;;16.88;;
75356;SDS011;63946;51.986;5.930;2023-04-08T18:34:28;19.73;;;14.15;;
75356;SDS011;63946;51.986;5.930;2023-04-08T18:36:57;17.10;;;12.52;;
75356;SDS011;63946;51.986;5.930;2023-04-08T18:39:28;19.65;;;14.20;;
75356;SDS011;63946;51.986;5.930;2023-04-08T18:41:57;19.42;;;14.80;;
75356;SDS011;63946;51.986;5.930;2023-04-08T18:44:26;18.52;;;13.57;;
75356;SDS011;63946;51.986;5.930;2023-04-08T18:46:55;15.50;;;12.18;;
75356;SDS011;63946;51.986;5.930;2023-04-08T18:49:25;19.65;;;14.80;;
75356;SDS011;63946;51.986;5.930;2023-04-08T18:51:56;22.58;;;15.93;;
75356;SDS011;63946;51.986;5.930;2023-04-08T18:54:25;21.08;;;16.75;;
75356;SDS011;63946;51.986;5.930;2023-04-08T18:56:57;22.25;;;14.93;;
75356;SDS011;63946;51.986;5.930;2023-04-08T18:59:28;21.13;;;15.40;;
75356;SDS011;63946;51.986;5.930;2023-04-08T19:01:57;22.23;;;16.15;;
75356;SDS011;63946;51.986;5.930;2023-04-08T19:04:26;23.20;;;15.73;;
75356;SDS011;63946;51.986;5.930;2023-04-08T19:06:55;24.05;;;17.33;;
75356;SDS011;63946;51.986;5.930;2023-04-08T19:09:24;19.77;;;14.60;;
75356;SDS011;63946;51.986;5.930;2023-04-08T19:11:52;25.63;;;18.55;;
75356;SDS011;63946;51.986;5.930;2023-04-08T19:14:26;19.92;;;14.98;;
75356;SDS011;63946;51.986;5.930;2023-04-08T19:16:55;23.05;;;16.88;;
75356;SDS011;63946;51.986;5.930;2023-04-08T19:19:24;20.40;;;15.65;;
75356;SDS011;63946;51.986;5.930;2023-04-08T19:21:53;22.25;;;16.08;;
75356;SDS011;63946;51.986;5.930;2023-04-08T19:24:22;25.90;;;16.80;;
75356;SDS011;63946;51.986;5.930;2023-04-08T19:26:50;25.05;;;18.10;;
75356;SDS011;63946;51.986;5.930;2023-04-08T19:29:19;27.58;;;17.95;;
75356;SDS011;63946;51.986;5.930;2023-04-08T19:31:54;27.08;;;17.73;;
75356;SDS011;63946;51.986;5.930;2023-04-08T19:34:27;26.92;;;18.10;;
75356;SDS011;63946;51.986;5.930;2023-04-08T19:36:56;28.58;;;18.92;;
75356;SDS011;63946;51.986;5.930;2023-04-08T19:39:25;28.63;;;17.77;;
75356;SDS011;63946;51.986;5.930;2023-04-08T19:41:55;26.77;;;18.67;;
75356;SDS011;63946;51.986;5.930;2023-04-08T19:44:26;32.78;;;20.63;;
75356;SDS011;63946;51.986;5.930;2023-04-08T19:46:54;28.33;;;18.23;;
75356;SDS011;63946;51.986;5.930;2023-04-08T19:49:24;27.13;;;17.88;;
75356;SDS011;63946;51.986;5.930;2023-04-08T19:51:56;29.17;;;19.38;;
75356;SDS011;63946;51.986;5.930;2023-04-08T19:54:25;28.80;;;18.45;;
75356;SDS011;63946;51.986;5.930;2023-04-08T19:56:55;32.10;;;19.13;;
75356;SDS011;63946;51.986;5.930;2023-04-08T19:59:25;29.63;;;17.85;;
75356;SDS011;63946;51.986;5.930;2023-04-08T20:01:57;32.80;;;19.95;;
75356;SDS011;63946;51.986;5.930;2023-04-08T20:04:27;34.22;;;21.65;;
75356;SDS011;63946;51.986;5.930;2023-04-08T20:06:57;32.22;;;20.90;;
75356;SDS011;63946;51.986;5.930;2023-04-08T20:09:30;31.65;;;20.08;;
75356;SDS011;63946;51.986;5.930;2023-04-08T20:11:59;34.67;;;21.05;;
75356;SDS011;63946;51.986;5.930;2023-04-08T20:14:31;33.78;;;20.27;;
75356;SDS011;63946;51.986;5.930;2023-04-08T20:17:06;25.42;;;16.33;;
75356;SDS011;63946;51.986;5.930;2023-04-08T20:19:35;30.63;;;19.00;;
75356;SDS011;63946;51.986;5.930;2023-04-08T20:22:04;28.92;;;18.08;;
75356;SDS011;63946;51.986;5.930;2023-04-08T20:24:36;26.23;;;17.08;;
75356;SDS011;63946;51.986;5.930;2023-04-08T20:27:04;29.23;;;18.08;;
75356;SDS011;63946;51.986;5.930;2023-04-08T20:29:33;26.13;;;16.48;;
75356;SDS011;63946;51.986;5.930;2023-04-08T20:32:02;23.45;;;15.15;;
75356;SDS011;63946;51.986;5.930;2023-04-08T20:34:32;28.60;;;18.33;;
75356;SDS011;63946;51.986;5.930;2023-04-08T20:37:03;31.90;;;19.40;;
75356;SDS011;63946;51.986;5.930;2023-04-08T20:39:32;33.55;;;19.80;;
75356;SDS011;63946;51.986;5.930;2023-04-08T20:42:01;28.55;;;18.55;;
75356;SDS011;63946;51.986;5.930;2023-04-08T20:44:31;32.70;;;20.48;;
75356;SDS011;63946;51.986;5.930;2023-04-08T20:47:00;25.92;;;15.80;;
75356;SDS011;63946;51.986;5.930;2023-04-08T20:49:28;23.42;;;15.80;;
75356;SDS011;63946;51.986;5.930;2023-04-08T20:52:02;26.25;;;15.60;;
75356;SDS011;63946;51.986;5.930;2023-04-08T20:54:31;29.55;;;17.45;;
75356;SDS011;63946;51.986;5.930;2023-04-08T20:57:00;31.27;;;18.42;;
75356;SDS011;63946;51.986;5.930;2023-04-08T20:59:29;25.85;;;15.75;;
75356;SDS011;63946;51.986;5.930;2023-04-08T21:02:01;26.10;;;16.08;;
75356;SDS011;63946;51.986;5.930;2023-04-08T21:04:30;28.90;;;17.80;;
75356;SDS011;63946;51.986;5.930;2023-04-08T21:07:00;27.17;;;16.10;;
75356;SDS011;63946;51.986;5.930;2023-04-08T21:09:29;32.15;;;19.63;;
75356;SDS011;63946;51.986;5.930;2023-04-08T21:12:00;34.45;;;19.33;;
75356;SDS011;63946;51.986;5.930;2023-04-08T21:14:29;30.75;;;17.95;;
75356;SDS011;63946;51.986;5.930;2023-04-08T21:16:59;30.38;;;18.52;;
75356;SDS011;63946;51.986;5.930;2023-04-08T21:19:28;30.80;;;18.75;;
75356;SDS011;63946;51.986;5.930;2023-04-08T21:21:56;32.10;;;18.70;;
75356;SDS011;63946;51.986;5.930;2023-04-08T21:24:25;28.02;;;16.48;;
75356;SDS011;63946;51.986;5.930;2023-04-08T21:26:54;34.75;;;19.98;;
75356;SDS011;63946;51.986;5.930;2023-04-08T21:29:23;32.85;;;19.52;;
75356;SDS011;63946;51.986;5.930;2023-04-08T21:31:52;28.42;;;17.55;;
75356;SDS011;63946;51.986;5.930;2023-04-08T21:34:20;30.27;;;17.15;;
75356;SDS011;63946;51.986;5.930;2023-04-08T21:36:49;32.08;;;19.65;;